Time;durP1;ratioP1;P1;durP2;ratioP2;P2;SDS_P1;SDS_P2;PMS_P1;PMS_P2;Temp;Humidity;BMP_temperature;BMP_pressure;BME280_temperature;BME280_humidity;BME280_pressure;Samples;Min_cycle;Max_cycle;Signal;HPM_P1;HPM_P2
2021/04/09 00:00:46;;;;;;;11.87;8.07;;;;;;;1.95;100.00;101043.09;20616543;27;7656965;-58
2021/04/09 00:10:47;;;;;;;12.97;7.97;;;;;;;1.73;100.00;101055.75;20781912;28;20780;-54
2021/04/09 00:20:47;;;;;;;16.93;9.70;;;;;;;1.54;100.00;101079.75;20796535;28;20220;-53
2021/04/09 00:30:48;;;;;;;17.80;11.77;;;;;;;1.40;100.00;101079.94;20773974;28;20566;-53
2021/04/09 00:40:49;;;;;;;13.98;9.90;;;;;;;1.28;100.00;101082.75;20794957;28;20571;-60
2021/04/09 00:50:49;;;;;;;14.13;9.97;;;;;;;1.18;100.00;101083.78;20836813;28;20278;-64
2021/04/09 01:00:50;;;;;;;17.17;10.07;;;;;;;1.03;100.00;101069.94;20954701;28;20281;-56
2021/04/09 01:10:51;;;;;;;15.70;10.33;;;;;;;0.99;100.00;101081.38;20895456;28;20480;-53
2021/04/09 01:31:22;;;;;;;19.60;10.40;;;;;;;0.78;100.00;101081.66;20608513;27;7811161;-58
2021/04/09 01:41:24;;;;;;;15.30;8.60;;;;;;;0.68;100.00;101080.91;20862971;28;20657;-53
2021/04/09 01:51:25;;;;;;;15.57;9.17;;;;;;;0.60;100.00;101076.63;20877348;28;20214;-59
2021/04/09 02:01:26;;;;;;;16.53;9.20;;;;;;;0.48;100.00;101076.78;20854176;28;20219;-53
2021/04/09 02:11:27;;;;;;;14.57;9.07;;;;;;;0.39;100.00;101067.22;20876007;28;20354;-55
2021/04/09 02:21:28;;;;;;;14.57;8.50;;;;;;;0.28;100.00;101063.84;20860394;28;20226;-54
2021/04/09 02:31:29;;;;;;;16.60;8.80;;;;;;;0.20;100.00;101066.56;20936699;28;20211;-54
2021/04/09 02:41:35;;;;;;;15.53;8.57;;;;;;;0.12;100.00;101068.34;20893123;28;20232;-53
2021/04/09 03:01:51;;;;;;;9.60;6.77;;;;;;;-0.06;100.00;101061.53;20614809;27;7763690;-53
2021/04/09 03:11:52;;;;;;;14.00;7.70;;;;;;;-0.17;100.00;101060.78;20861368;28;20235;-53
2021/04/09 03:21:53;;;;;;;11.77;7.32;;;;;;;-0.18;100.00;101071.28;20878400;28;20215;-52
2021/04/09 03:31:53;;;;;;;12.23;6.73;;;;;;;-0.19;100.00;101062.53;20855129;28;20310;-53
2021/04/09 03:41:54;;;;;;;13.53;7.33;;;;;;;-0.19;100.00;101051.16;20877072;28;20228;-52
2021/04/09 03:51:54;;;;;;;11.27;7.10;;;;;;;-0.12;100.00;101042.38;20857849;28;20577;-53
2021/04/09 04:01:55;;;;;;;10.73;7.47;;;;;;;-0.04;100.00;101051.03;20954171;28;20469;-53
2021/04/09 04:22:29;;;;;;;11.10;7.40;;;;;;;0.22;100.00;101038.53;20605967;27;7710671;-53
2021/04/09 04:32:29;;;;;;;12.83;7.10;;;;;;;0.58;100.00;101052.13;20865805;28;20231;-53
2021/04/09 04:42:30;;;;;;;12.43;7.43;;;;;;;0.97;100.00;101083.16;20861924;28;20234;-58
2021/04/09 04:52:30;;;;;;;8.17;6.00;;;;;;;1.29;100.00;101071.34;20841342;28;20229;-54
2021/04/09 05:02:31;;;;;;;9.20;6.68;;;;;;;1.54;97.71;101077.13;20824857;28;20285;-57
2021/04/09 05:12:31;;;;;;;11.77;6.77;;;;;;;1.81;97.22;101074.06;20867737;28;20239;-57
2021/04/09 05:22:32;;;;;;;12.93;8.50;;;;;;;2.09;95.80;101067.41;20898796;28;20543;-54
2021/04/09 05:42:44;;;;;;;16.40;10.00;;;;;;;2.67;92.49;101075.97;20591148;27;7551278;-53
2021/04/09 05:52:44;;;;;;;12.67;8.03;;;;;;;3.03;93.54;101071.72;20846167;28;20220;-54
2021/04/09 06:02:45;;;;;;;13.10;7.87;;;;;;;3.45;91.25;101073.41;20850032;28;20216;-54
2021/04/09 06:12:52;;;;;;;12.27;7.63;;;;;;;3.89;89.36;101072.34;20841599;28;20224;-57
2021/04/09 06:22:52;;;;;;;12.67;8.60;;;;;;;4.34;87.63;101072.09;20853437;28;20583;-55
2021/04/09 06:32:52;;;;;;;12.50;8.23;;;;;;;4.67;87.16;101062.34;20833629;28;20237;-54
2021/04/09 06:42:55;;;;;;;9.10;6.67;;;;;;;4.87;84.47;101060.00;20936548;28;20464;-55
2021/04/09 06:52:56;;;;;;;10.60;7.53;;;;;;;5.14;83.82;101058.31;20866126;28;20235;-55
2021/04/09 07:02:57;;;;;;;7.80;6.97;;;;;;;5.48;82.48;101047.56;20838676;28;20310;-57
2021/04/09 07:13:08;;;;;;;11.63;8.37;;;;;;;5.85;77.81;101041.94;20865965;28;20222;-55
2021/04/09 07:23:10;;;;;;;10.67;8.13;;;;;;;6.10;78.28;101032.28;20871374;28;20630;-56
2021/04/09 07:33:11;;;;;;;9.63;8.40;;;;;;;6.23;76.27;101021.25;20870905;28;21038;-56
2021/04/09 07:43:16;;;;;;;11.45;6.70;;;;;;;6.55;73.66;101015.66;20843242;28;20223;-55
2021/04/09 07:53:19;;;;;;;7.27;5.63;;;;;;;6.72;72.88;101000.00;20858872;28;20223;-54
2021/04/09 08:03:35;;;;;;;7.47;6.30;;;;;;;6.93;66.86;100993.00;20851896;28;20238;-55
2021/04/09 08:13:36;;;;;;;7.47;5.50;;;;;;;7.14;69.46;100991.28;20872012;28;20258;-55
2021/04/09 08:23:36;;;;;;;7.63;5.75;;;;;;;7.34;70.52;100971.94;20773337;28;20725;-56
2021/04/09 08:33:37;;;;;;;5.73;4.60;;;;;;;7.71;68.33;100956.22;20770543;28;20304;-56
2021/04/09 08:43:38;;;;;;;6.30;4.63;;;;;;;7.78;63.10;100957.66;20795408;28;20459;-56
2021/04/09 08:53:38;;;;;;;6.77;4.53;;;;;;;8.01;65.73;100943.38;20829833;28;20553;-56
2021/04/09 09:03:39;;;;;;;5.70;4.13;;;;;;;8.40;64.59;100929.28;20849321;28;20304;-56
2021/04/09 09:13:49;;;;;;;6.27;4.37;;;;;;;8.68;58.65;100919.09;20834016;28;20456;-55
2021/04/09 09:23:58;;;;;;;9.57;5.80;;;;;;;9.59;60.66;100903.94;20867332;28;20316;-56
2021/04/09 09:34:17;;;;;;;6.57;5.20;;;;;;;10.34;52.40;100892.91;20810255;28;20257;-61
2021/04/09 09:44:31;;;;;;;5.73;4.07;;;;;;;10.04;53.78;100884.69;20867516;28;20223;-55
2021/04/09 09:54:32;;;;;;;6.23;4.53;;;;;;;10.10;56.64;100856.84;20845479;28;20235;-63
2021/04/09 10:04:33;;;;;;;6.20;4.87;;;;;;;10.06;57.75;100863.28;20864101;28;20752;-55
2021/04/09 10:14:43;;;;;;;6.63;4.87;;;;;;;9.87;53.87;100791.44;20854534;28;20223;-63
2021/04/09 10:24:43;;;;;;;6.17;4.53;;;;;;;10.18;56.36;100809.31;20866676;28;20499;-57
2021/04/09 10:34:51;;;;;;;7.73;5.83;;;;;;;10.08;51.89;100805.41;20877697;28;20387;-63
2021/04/09 10:44:53;;;;;;;7.67;5.10;;;;;;;10.20;56.07;100810.09;20885165;28;20722;-70
2021/04/09 10:55:01;;;;;;;6.03;5.23;;;;;;;10.60;52.39;100778.53;20897655;28;20226;-70
2021/04/09 11:05:03;;;;;;;5.30;4.77;;;;;;;10.74;55.29;100794.63;20873640;28;20583;-56
2021/04/09 11:15:06;;;;;;;6.73;5.13;;;;;;;10.92;55.61;100771.31;20893197;28;20599;-67
2021/04/09 11:25:07;;;;;;;7.30;5.17;;;;;;;11.39;54.73;100757.81;20890728;28;20610;-62
2021/04/09 11:35:11;;;;;;;10.97;5.10;;;;;;;11.38;53.51;100748.94;20894275;28;20237;-64
2021/04/09 11:45:13;;;;;;;7.37;5.23;;;;;;;11.37;51.62;100741.00;20864624;28;20220;-70
2021/04/09 11:55:15;;;;;;;6.40;5.60;;;;;;;11.33;51.95;100718.13;20871467;28;20723;-68
2021/04/09 12:05:20;;;;;;;7.43;5.63;;;;;;;11.55;51.77;100716.69;20888682;28;20712;-63
2021/04/09 12:15:22;;;;;;;6.23;5.50;;;;;;;11.76;51.15;100673.56;20881097;28;20636;-64
2021/04/09 12:25:23;;;;;;;5.10;4.57;;;;;;;11.87;52.12;100665.72;20894515;28;20227;-66
2021/04/09 12:35:25;;;;;;;4.80;4.30;;;;;;;11.96;50.21;100664.25;20856634;28;20655;-64
2021/04/09 12:45:26;;;;;;;4.27;3.87;;;;;;;11.92;52.02;100647.56;20882506;28;20216;-58
2021/04/09 12:55:27;;;;;;;7.90;4.90;;;;;;;11.94;50.73;100645.66;20864690;28;20691;-56
2021/04/09 13:05:29;;;;;;;4.70;4.30;;;;;;;11.98;50.46;100631.09;20885506;28;20353;-55
2021/04/09 13:15:29;;;;;;;6.07;5.40;;;;;;;12.10;50.27;100624.09;20868694;28;20230;-55
2021/04/09 13:25:30;;;;;;;7.37;5.53;;;;;;;11.84;48.73;100613.28;20880263;28;20207;-55
2021/04/09 13:35:31;;;;;;;7.53;5.77;;;;;;;11.84;51.72;100585.66;20877924;28;20457;-55
2021/04/09 13:45:32;;;;;;;5.63;4.73;;;;;;;11.87;49.79;100597.03;20880321;28;20489;-55
2021/04/09 13:55:33;;;;;;;6.33;5.20;;;;;;;11.90;50.41;100580.81;20888428;28;20310;-54
2021/04/09 14:05:33;;;;;;;7.68;4.93;;;;;;;12.00;51.70;100572.16;20868415;28;20215;-53
2021/04/09 14:15:34;;;;;;;6.30;4.28;;;;;;;12.32;48.49;100562.00;20871152;28;20246;-53
2021/04/09 14:25:34;;;;;;;5.22;4.00;;;;;;;12.53;50.21;100547.16;20881145;28;20220;-66
2021/04/09 14:35:35;;;;;;;4.90;4.40;;;;;;;12.66;47.75;100555.19;20901870;28;20224;-53
2021/04/09 14:45:36;;;;;;;5.73;3.73;;;;;;;12.98;51.22;100535.91;20881103;28;20660;-68
2021/04/09 14:55:37;;;;;;;4.80;3.97;;;;;;;13.41;49.41;100519.44;20893203;28;20225;-54
2021/04/09 15:05:37;;;;;;;4.70;4.00;;;;;;;13.31;48.49;100519.25;20820652;28;20234;-64
2021/04/09 15:15:38;;;;;;;4.37;4.03;;;;;;;13.28;49.95;100518.66;20802164;28;20245;-53
2021/04/09 15:25:38;;;;;;;5.37;4.20;;;;;;;13.06;48.85;100508.56;20816157;28;20217;-64
2021/04/09 15:35:39;;;;;;;4.27;3.70;;;;;;;13.21;49.94;100502.13;20803280;28;20525;-54
2021/04/09 15:45:39;;;;;;;5.07;3.97;;;;;;;13.07;49.78;100506.72;20835822;28;20674;-53
2021/04/09 15:55:41;;;;;;;6.27;4.00;;;;;;;12.70;49.87;100497.78;20836512;28;20819;-66
2021/04/09 16:05:41;;;;;;;6.77;4.50;;;;;;;12.23;49.54;100486.72;20896289;28;20867;-69
2021/04/09 16:15:42;;;;;;;5.83;4.23;;;;;;;11.81;51.65;100495.84;20879328;28;20280;-67
2021/04/09 16:25:42;;;;;;;5.27;4.10;;;;;;;11.47;52.09;100497.16;20888146;28;20223;-66
2021/04/09 16:35:50;;;;;;;8.85;4.63;;;;;;;11.14;51.26;100475.28;20882496;28;20227;-56
2021/04/09 16:45:51;;;;;;;6.83;4.07;;;;;;;10.96;52.63;100479.16;20881385;28;20227;-54
2021/04/09 16:55:52;;;;;;;6.37;4.27;;;;;;;10.71;52.39;100470.00;20891104;28;20614;-69
2021/04/09 17:05:52;;;;;;;7.03;4.03;;;;;;;10.35;53.58;100480.28;20870846;28;20221;-70
2021/04/09 17:15:53;;;;;;;4.15;3.75;;;;;;;9.75;54.82;100489.13;20890679;28;20655;-56
2021/04/09 17:25:53;;;;;;;9.20;5.70;;;;;;;9.07;56.38;100494.81;20868564;28;20763;-60
2021/04/09 17:35:54;;;;;;;9.23;5.20;;;;;;;8.37;58.42;100485.31;20888310;28;20464;-56
2021/04/09 17:45:54;;;;;;;5.50;4.67;;;;;;;7.86;59.36;100502.97;20870403;28;20251;-61
2021/04/09 17:55:55;;;;;;;6.77;5.23;;;;;;;7.41;60.11;100500.78;20885360;28;20228;-54
2021/04/09 18:05:55;;;;;;;8.15;5.97;;;;;;;7.15;61.28;100504.69;20864743;28;20244;-56
2021/04/09 18:16:02;;;;;;;9.13;7.13;;;;;;;6.91;61.49;100497.88;20839607;28;20595;-55
2021/04/09 18:26:03;;;;;;;9.07;6.90;;;;;;;6.70;61.75;100500.59;20862154;28;20466;-55
2021/04/09 18:36:04;;;;;;;11.33;7.47;;;;;;;6.61;62.63;100498.34;20869016;28;20632;-55
2021/04/09 18:46:05;;;;;;;18.87;11.37;;;;;;;6.66;62.08;100488.38;20896674;28;20228;-58
2021/04/09 18:56:06;;;;;;;15.90;10.52;;;;;;;6.53;61.85;100479.25;20879803;28;20294;-64
2021/04/09 19:06:07;;;;;;;14.80;9.37;;;;;;;6.50;62.03;100480.28;20883325;28;20227;-54
2021/04/09 19:16:07;;;;;;;15.67;10.00;;;;;;;6.40;62.15;100488.72;20879271;28;20820;-53
2021/04/09 19:26:08;;;;;;;16.23;10.37;;;;;;;6.32;62.50;100490.84;20898108;28;20224;-55
2021/04/09 19:36:09;;;;;;;11.67;7.77;;;;;;;6.25;63.16;100489.41;20881850;28;20223;-54
2021/04/09 19:46:09;;;;;;;11.37;7.43;;;;;;;6.18;63.37;100487.91;20890343;28;20823;-54
2021/04/09 19:56:10;;;;;;;12.37;8.23;;;;;;;6.14;63.04;100485.44;20889771;28;20615;-54
2021/04/09 20:06:10;;;;;;;11.37;7.00;;;;;;;5.98;63.00;100479.06;20881029;28;20757;-61
2021/04/09 20:16:11;;;;;;;11.30;7.23;;;;;;;5.83;63.74;100471.72;20895115;28;20584;-55
2021/04/09 20:26:12;;;;;;;12.40;7.57;;;;;;;5.65;64.04;100477.81;20871008;28;20238;-57
2021/04/09 20:36:12;;;;;;;11.37;7.30;;;;;;;5.41;64.29;100464.66;20890232;28;20642;-54
2021/04/09 20:46:14;;;;;;;9.60;6.17;;;;;;;5.28;65.03;100455.50;20824191;28;20466;-54
2021/04/09 20:56:14;;;;;;;9.27;6.63;;;;;;;5.18;64.63;100459.44;20837477;28;20261;-59
2021/04/09 21:06:15;;;;;;;8.52;6.65;;;;;;;5.12;65.41;100457.03;20853135;28;20674;-57
2021/04/09 21:16:16;;;;;;;12.70;6.87;;;;;;;4.99;65.86;100451.34;20886025;28;20237;-71
2021/04/09 21:26:17;;;;;;;12.90;7.53;;;;;;;4.87;66.24;100445.69;20880327;28;20229;-59
2021/04/09 21:36:18;;;;;;;11.73;7.63;;;;;;;4.81;66.44;100451.22;20876357;28;20707;-66
2021/04/09 21:46:18;;;;;;;9.87;6.40;;;;;;;4.69;67.00;100444.63;20888040;28;20240;-56
2021/04/09 21:56:19;;;;;;;11.47;7.43;;;;;;;4.54;67.57;100435.47;20869314;28;20471;-67
2021/04/09 22:06:19;;;;;;;9.97;7.00;;;;;;;4.39;68.08;100416.69;20889492;28;20298;-53
2021/04/09 22:16:20;;;;;;;9.97;6.87;;;;;;;4.27;68.96;100418.00;20868065;28;20467;-63
2021/04/09 22:26:20;;;;;;;9.40;6.30;;;;;;;4.18;69.04;100408.66;20904580;28;20470;-61
2021/04/09 22:36:21;;;;;;;9.03;6.43;;;;;;;4.13;68.86;100409.72;20883414;28;20260;-59
2021/04/09 22:46:21;;;;;;;7.43;5.73;;;;;;;4.02;69.90;100414.53;20898713;28;20690;-60
2021/04/09 22:56:22;;;;;;;9.33;6.13;;;;;;;3.87;70.51;100400.97;20888354;28;20243;-54
2021/04/09 23:06:22;;;;;;;8.32;5.97;;;;;;;3.74;71.12;100397.06;20891003;28;20370;-63
2021/04/09 23:16:22;;;;;;;9.37;6.77;;;;;;;3.55;71.54;100396.81;20895853;28;20227;-57
2021/04/09 23:26:23;;;;;;;10.63;8.70;;;;;;;3.44;72.96;100400.72;20882683;28;20222;-67
2021/04/09 23:36:24;;;;;;;15.50;10.77;;;;;;;3.31;74.05;100399.41;20897363;28;20449;-56
2021/04/09 23:46:24;;;;;;;14.27;9.63;;;;;;;3.25;73.77;100393.44;20875772;28;20216;-54
2021/04/09 23:56:25;;;;;;;9.73;7.43;;;;;;;3.21;73.88;100368.09;20897434;28;20238;-53
